sensor_id;sensor_type;location;lat;lon;timestamp;P1;durP1;ratioP1;P2;durP2;ratioP2
38220;SDS011;24023;51.280;7.148;2023-02-11T00:00:11;23.4;;;19.2;;
38220;SDS011;24023;51.280;7.148;2023-02-11T00:05:06;23.4;;;19.2;;
38220;SDS011;24023;51.280;7.148;2023-02-11T00:10:08;23.0;;;18.3;;
38220;SDS011;24023;51.280;7.148;2023-02-11T00:15:08;23.0;;;18.3;;
38220;SDS011;24023;51.280;7.148;2023-02-11T00:20:08;22.4;;;18.2;;
38220;SDS011;24023;51.280;7.148;2023-02-11T00:25:06;22.4;;;18.2;;
38220;SDS011;24023;51.280;7.148;2023-02-11T00:30:12;22.4;;;18.2;;
38220;SDS011;24023;51.280;7.148;2023-02-11T00:35:06;22.2;;;17.7;;
38220;SDS011;24023;51.280;7.148;2023-02-11T00:40:08;22.2;;;17.7;;
38220;SDS011;24023;51.280;7.148;2023-02-11T00:45:09;21.4;;;17.1;;
38220;SDS011;24023;51.280;7.148;2023-02-11T00:50:08;21.4;;;17.1;;
38220;SDS011;24023;51.280;7.148;2023-02-11T00:55:06;21.4;;;17.1;;
38220;SDS011;24023;51.280;7.148;2023-02-11T01:00:11;19.9;;;15.8;;
38220;SDS011;24023;51.280;7.148;2023-02-11T01:05:06;18.3;;;15.5;;
38220;SDS011;24023;51.280;7.148;2023-02-11T01:10:08;18.3;;;15.5;;
38220;SDS011;24023;51.280;7.148;2023-02-11T01:15:08;17.4;;;14.9;;
38220;SDS011;24023;51.280;7.148;2023-02-11T01:20:11;17.4;;;14.9;;
38220;SDS011;24023;51.280;7.148;2023-02-11T01:25:07;17.4;;;14.9;;
38220;SDS011;24023;51.280;7.148;2023-02-11T01:30:10;18.9;;;15.4;;
38220;SDS011;24023;51.280;7.148;2023-02-11T01:35:07;18.9;;;15.4;;
38220;SDS011;24023;51.280;7.148;2023-02-11T01:40:11;17.5;;;14.7;;
38220;SDS011;24023;51.280;7.148;2023-02-11T01:46:33;17.5;;;14.7;;
38220;SDS011;24023;51.280;7.148;2023-02-11T01:50:07;17.5;;;14.7;;
38220;SDS011;24023;51.280;7.148;2023-02-11T02:00:12;18.8;;;15.5;;
38220;SDS011;24023;51.280;7.148;2023-02-11T02:05:08;18.1;;;15.2;;
38220;SDS011;24023;51.280;7.148;2023-02-11T02:10:08;18.1;;;15.2;;
38220;SDS011;24023;51.280;7.148;2023-02-11T02:15:24;18.1;;;15.2;;
38220;SDS011;24023;51.280;7.148;2023-02-11T02:20:12;19.0;;;14.9;;
38220;SDS011;24023;51.280;7.148;2023-02-11T02:25:10;19.0;;;14.9;;
38220;SDS011;24023;51.280;7.148;2023-02-11T02:31:19;19.0;;;14.7;;
38220;SDS011;24023;51.280;7.148;2023-02-11T02:35:09;19.0;;;14.7;;
38220;SDS011;24023;51.280;7.148;2023-02-11T02:40:09;19.0;;;14.7;;
38220;SDS011;24023;51.280;7.148;2023-02-11T02:45:10;18.1;;;14.7;;
38220;SDS011;24023;51.280;7.148;2023-02-11T02:50:08;18.1;;;14.7;;
38220;SDS011;24023;51.280;7.148;2023-02-11T02:55:09;18.8;;;14.2;;
38220;SDS011;24023;51.280;7.148;2023-02-11T03:00:13;18.8;;;14.2;;
38220;SDS011;24023;51.280;7.148;2023-02-11T03:05:07;17.7;;;15.0;;
38220;SDS011;24023;51.280;7.148;2023-02-11T03:10:08;17.7;;;15.0;;
38220;SDS011;24023;51.280;7.148;2023-02-11T03:15:08;17.7;;;15.0;;
38220;SDS011;24023;51.280;7.148;2023-02-11T03:20:09;19.2;;;15.0;;
38220;SDS011;24023;51.280;7.148;2023-02-11T03:25:06;19.2;;;15.0;;
38220;SDS011;24023;51.280;7.148;2023-02-11T03:30:11;17.9;;;15.2;;
38220;SDS011;24023;51.280;7.148;2023-02-11T03:35:06;17.9;;;15.2;;
38220;SDS011;24023;51.280;7.148;2023-02-11T03:40:08;17.9;;;15.2;;
38220;SDS011;24023;51.280;7.148;2023-02-11T03:45:11;19.3;;;15.2;;
38220;SDS011;24023;51.280;7.148;2023-02-11T03:50:09;19.3;;;15.2;;
38220;SDS011;24023;51.280;7.148;2023-02-11T03:55:07;19.0;;;14.9;;
38220;SDS011;24023;51.280;7.148;2023-02-11T04:00:11;19.0;;;14.9;;
38220;SDS011;24023;51.280;7.148;2023-02-11T04:05:12;19.0;;;14.9;;
38220;SDS011;24023;51.280;7.148;2023-02-11T04:10:09;18.7;;;14.4;;
38220;SDS011;24023;51.280;7.148;2023-02-11T04:15:07;18.7;;;14.4;;
38220;SDS011;24023;51.280;7.148;2023-02-11T04:20:08;19.6;;;15.1;;
38220;SDS011;24023;51.280;7.148;2023-02-11T04:25:07;19.6;;;15.1;;
38220;SDS011;24023;51.280;7.148;2023-02-11T04:30:10;19.6;;;15.1;;
38220;SDS011;24023;51.280;7.148;2023-02-11T04:35:07;17.6;;;14.6;;
38220;SDS011;24023;51.280;7.148;2023-02-11T04:40:08;17.6;;;14.6;;
38220;SDS011;24023;51.280;7.148;2023-02-11T04:45:09;20.9;;;15.3;;
38220;SDS011;24023;51.280;7.148;2023-02-11T04:50:08;20.9;;;15.3;;
38220;SDS011;24023;51.280;7.148;2023-02-11T04:55:06;20.6;;;16.8;;
38220;SDS011;24023;51.280;7.148;2023-02-11T05:00:11;20.6;;;16.8;;
38220;SDS011;24023;51.280;7.148;2023-02-11T05:05:06;20.6;;;16.8;;
38220;SDS011;24023;51.280;7.148;2023-02-11T05:10:07;19.7;;;15.5;;
38220;SDS011;24023;51.280;7.148;2023-02-11T05:15:07;19.7;;;15.5;;
38220;SDS011;24023;51.280;7.148;2023-02-11T05:20:08;19.8;;;15.5;;
38220;SDS011;24023;51.280;7.148;2023-02-11T05:25:07;19.8;;;15.5;;
38220;SDS011;24023;51.280;7.148;2023-02-11T05:30:09;19.8;;;15.5;;
38220;SDS011;24023;51.280;7.148;2023-02-11T05:35:07;19.5;;;15.7;;
38220;SDS011;24023;51.280;7.148;2023-02-11T05:40:08;19.5;;;15.7;;
38220;SDS011;24023;51.280;7.148;2023-02-11T05:45:11;18.5;;;15.4;;
38220;SDS011;24023;51.280;7.148;2023-02-11T05:50:14;18.5;;;15.4;;
38220;SDS011;24023;51.280;7.148;2023-02-11T05:55:10;16.6;;;14.8;;
38220;SDS011;24023;51.280;7.148;2023-02-11T06:00:10;16.6;;;14.8;;
38220;SDS011;24023;51.280;7.148;2023-02-11T06:05:06;17.5;;;14.3;;
38220;SDS011;24023;51.280;7.148;2023-02-11T06:10:08;17.5;;;14.3;;
38220;SDS011;24023;51.280;7.148;2023-02-11T06:15:07;14.0;;;12.5;;
38220;SDS011;24023;51.280;7.148;2023-02-11T06:20:08;14.0;;;12.5;;
38220;SDS011;24023;51.280;7.148;2023-02-11T06:25:06;13.7;;;12.4;;
38220;SDS011;24023;51.280;7.148;2023-02-11T06:30:09;13.7;;;12.4;;
38220;SDS011;24023;51.280;7.148;2023-02-11T06:35:06;13.7;;;12.4;;
38220;SDS011;24023;51.280;7.148;2023-02-11T06:40:08;14.0;;;12.6;;
38220;SDS011;24023;51.280;7.148;2023-02-11T06:45:10;14.0;;;12.6;;
38220;SDS011;24023;51.280;7.148;2023-02-11T06:50:10;12.9;;;11.6;;
38220;SDS011;24023;51.280;7.148;2023-02-11T06:55:06;12.9;;;11.6;;
38220;SDS011;24023;51.280;7.148;2023-02-11T07:00:11;12.9;;;11.6;;
38220;SDS011;24023;51.280;7.148;2023-02-11T07:05:07;20.9;;;14.5;;
38220;SDS011;24023;51.280;7.148;2023-02-11T07:10:08;20.9;;;14.5;;
38220;SDS011;24023;51.280;7.148;2023-02-11T07:15:07;28.6;;;17.4;;
38220;SDS011;24023;51.280;7.148;2023-02-11T07:20:09;28.6;;;17.4;;
38220;SDS011;24023;51.280;7.148;2023-02-11T07:25:06;24.1;;;15.6;;
38220;SDS011;24023;51.280;7.148;2023-02-11T07:30:09;24.1;;;15.6;;
38220;SDS011;24023;51.280;7.148;2023-02-11T07:35:06;41.2;;;18.1;;
38220;SDS011;24023;51.280;7.148;2023-02-11T07:40:08;41.2;;;18.1;;
38220;SDS011;24023;51.280;7.148;2023-02-11T07:45:10;35.3;;;17.6;;
38220;SDS011;24023;51.280;7.148;2023-02-11T07:50:08;35.3;;;17.6;;
38220;SDS011;24023;51.280;7.148;2023-02-11T07:55:06;37.3;;;17.8;;
38220;SDS011;24023;51.280;7.148;2023-02-11T08:00:11;37.3;;;17.8;;
38220;SDS011;24023;51.280;7.148;2023-02-11T08:05:06;41.3;;;18.0;;
38220;SDS011;24023;51.280;7.148;2023-02-11T08:10:08;41.3;;;18.0;;
38220;SDS011;24023;51.280;7.148;2023-02-11T08:15:08;33.9;;;18.3;;
38220;SDS011;24023;51.280;7.148;2023-02-11T08:20:08;33.9;;;18.3;;
38220;SDS011;24023;51.280;7.148;2023-02-11T08:25:06;29.4;;;18.3;;
38220;SDS011;24023;51.280;7.148;2023-02-11T08:30:15;29.4;;;18.3;;
38220;SDS011;24023;51.280;7.148;2023-02-11T08:35:07;24.3;;;17.7;;
38220;SDS011;24023;51.280;7.148;2023-02-11T08:40:08;24.3;;;17.7;;
38220;SDS011;24023;51.280;7.148;2023-02-11T08:45:09;42.8;;;18.1;;
38220;SDS011;24023;51.280;7.148;2023-02-11T08:50:07;42.8;;;18.1;;
38220;SDS011;24023;51.280;7.148;2023-02-11T08:55:06;31.9;;;18.7;;
38220;SDS011;24023;51.280;7.148;2023-02-11T09:00:10;31.9;;;18.7;;
38220;SDS011;24023;51.280;7.148;2023-02-11T09:05:06;34.4;;;18.5;;
38220;SDS011;24023;51.280;7.148;2023-02-11T09:10:07;34.4;;;18.5;;
38220;SDS011;24023;51.280;7.148;2023-02-11T09:15:08;52.3;;;19.5;;
38220;SDS011;24023;51.280;7.148;2023-02-11T09:20:08;52.3;;;19.5;;
38220;SDS011;24023;51.280;7.148;2023-02-11T09:25:06;59.1;;;19.8;;
38220;SDS011;24023;51.280;7.148;2023-02-11T09:30:09;59.1;;;19.8;;
38220;SDS011;24023;51.280;7.148;2023-02-11T09:35:06;51.3;;;20.6;;
38220;SDS011;24023;51.280;7.148;2023-02-11T09:40:08;51.3;;;20.6;;
38220;SDS011;24023;51.280;7.148;2023-02-11T09:45:14;42.4;;;20.4;;
38220;SDS011;24023;51.280;7.148;2023-02-11T09:50:09;42.4;;;20.4;;
38220;SDS011;24023;51.280;7.148;2023-02-11T09:55:11;49.3;;;20.1;;
38220;SDS011;24023;51.280;7.148;2023-02-11T10:00:15;49.3;;;20.1;;
38220;SDS011;24023;51.280;7.148;2023-02-11T10:05:10;48.7;;;21.6;;
38220;SDS011;24023;51.280;7.148;2023-02-11T10:10:10;48.7;;;21.6;;
38220;SDS011;24023;51.280;7.148;2023-02-11T10:15:12;52.0;;;25.9;;
38220;SDS011;24023;51.280;7.148;2023-02-11T10:20:13;52.0;;;25.9;;
38220;SDS011;24023;51.280;7.148;2023-02-11T10:25:14;46.1;;;21.6;;
38220;SDS011;24023;51.280;7.148;2023-02-11T10:30:13;46.1;;;21.6;;
38220;SDS011;24023;51.280;7.148;2023-02-11T10:35:11;41.7;;;21.3;;
38220;SDS011;24023;51.280;7.148;2023-02-11T10:40:11;41.7;;;21.3;;
38220;SDS011;24023;51.280;7.148;2023-02-11T10:45:16;34.2;;;20.7;;
38220;SDS011;24023;51.280;7.148;2023-02-11T10:50:16;34.2;;;20.7;;
38220;SDS011;24023;51.280;7.148;2023-02-11T10:55:13;42.5;;;21.4;;
38220;SDS011;24023;51.280;7.148;2023-02-11T11:00:19;42.5;;;21.4;;
38220;SDS011;24023;51.280;7.148;2023-02-11T11:05:13;37.0;;;22.3;;
38220;SDS011;24023;51.280;7.148;2023-02-11T11:10:24;37.0;;;22.3;;
38220;SDS011;24023;51.280;7.148;2023-02-11T11:15:16;38.2;;;22.6;;
38220;SDS011;24023;51.280;7.148;2023-02-11T11:20:18;38.2;;;22.6;;
38220;SDS011;24023;51.280;7.148;2023-02-11T11:25:18;49.6;;;23.1;;
38220;SDS011;24023;51.280;7.148;2023-02-11T11:30:10;49.6;;;23.1;;
38220;SDS011;24023;51.280;7.148;2023-02-11T11:35:16;95.3;;;49.8;;
38220;SDS011;24023;51.280;7.148;2023-02-11T11:40:09;95.3;;;49.8;;
38220;SDS011;24023;51.280;7.148;2023-02-11T11:45:19;49.1;;;28.2;;
38220;SDS011;24023;51.280;7.148;2023-02-11T11:50:19;49.1;;;28.2;;
38220;SDS011;24023;51.280;7.148;2023-02-11T11:55:10;45.1;;;26.6;;
38220;SDS011;24023;51.280;7.148;2023-02-11T12:00:13;45.1;;;26.6;;
38220;SDS011;24023;51.280;7.148;2023-02-11T12:05:07;75.0;;;35.7;;
38220;SDS011;24023;51.280;7.148;2023-02-11T12:10:16;75.0;;;35.7;;
38220;SDS011;24023;51.280;7.148;2023-02-11T12:15:12;34.9;;;26.0;;
38220;SDS011;24023;51.280;7.148;2023-02-11T12:20:12;34.9;;;26.0;;
38220;SDS011;24023;51.280;7.148;2023-02-11T12:25:11;54.3;;;25.8;;
38220;SDS011;24023;51.280;7.148;2023-02-11T12:30:16;54.3;;;25.8;;
38220;SDS011;24023;51.280;7.148;2023-02-11T12:35:11;41.3;;;23.3;;
38220;SDS011;24023;51.280;7.148;2023-02-11T12:40:12;41.3;;;23.3;;
38220;SDS011;24023;51.280;7.148;2023-02-11T12:45:14;40.8;;;24.7;;
38220;SDS011;24023;51.280;7.148;2023-02-11T12:50:10;40.8;;;24.7;;
38220;SDS011;24023;51.280;7.148;2023-02-11T12:55:08;53.1;;;35.0;;
38220;SDS011;24023;51.280;7.148;2023-02-11T13:00:12;53.1;;;35.0;;
38220;SDS011;24023;51.280;7.148;2023-02-11T13:05:09;41.2;;;24.6;;
38220;SDS011;24023;51.280;7.148;2023-02-11T13:10:14;41.2;;;24.6;;
38220;SDS011;24023;51.280;7.148;2023-02-11T13:15:12;50.3;;;25.2;;
38220;SDS011;24023;51.280;7.148;2023-02-11T13:20:13;50.3;;;25.2;;
38220;SDS011;24023;51.280;7.148;2023-02-11T13:25:18;60.5;;;28.2;;
38220;SDS011;24023;51.280;7.148;2023-02-11T13:30:26;60.5;;;28.2;;
38220;SDS011;24023;51.280;7.148;2023-02-11T13:35:24;38.8;;;27.2;;
38220;SDS011;24023;51.280;7.148;2023-02-11T13:40:20;38.8;;;27.2;;
38220;SDS011;24023;51.280;7.148;2023-02-11T13:45:15;50.9;;;30.9;;
38220;SDS011;24023;51.280;7.148;2023-02-11T13:50:19;50.9;;;30.9;;
38220;SDS011;24023;51.280;7.148;2023-02-11T13:55:08;34.6;;;26.6;;
38220;SDS011;24023;51.280;7.148;2023-02-11T14:00:44;34.6;;;26.6;;
38220;SDS011;24023;51.280;7.148;2023-02-11T14:10:14;37.0;;;27.2;;
38220;SDS011;24023;51.280;7.148;2023-02-11T14:15:26;37.1;;;27.0;;
38220;SDS011;24023;51.280;7.148;2023-02-11T14:20:31;37.1;;;27.0;;
38220;SDS011;24023;51.280;7.148;2023-02-11T14:25:14;39.6;;;27.9;;
38220;SDS011;24023;51.280;7.148;2023-02-11T14:30:16;39.6;;;27.9;;
38220;SDS011;24023;51.280;7.148;2023-02-11T14:35:08;39.7;;;28.2;;
38220;SDS011;24023;51.280;7.148;2023-02-11T14:40:12;39.7;;;28.2;;
38220;SDS011;24023;51.280;7.148;2023-02-11T14:45:12;39.7;;;28.2;;
38220;SDS011;24023;51.280;7.148;2023-02-11T14:50:16;39.1;;;27.5;;
38220;SDS011;24023;51.280;7.148;2023-02-11T15:00:15;41.5;;;28.5;;
38220;SDS011;24023;51.280;7.148;2023-02-11T15:05:15;40.8;;;28.3;;
38220;SDS011;24023;51.280;7.148;2023-02-11T15:10:13;40.8;;;28.3;;
38220;SDS011;24023;51.280;7.148;2023-02-11T15:15:10;40.8;;;28.3;;
38220;SDS011;24023;51.280;7.148;2023-02-11T15:20:12;42.3;;;28.4;;
38220;SDS011;24023;51.280;7.148;2023-02-11T15:25:08;45.7;;;29.2;;
38220;SDS011;24023;51.280;7.148;2023-02-11T15:30:21;45.7;;;29.2;;
38220;SDS011;24023;51.280;7.148;2023-02-11T15:35:09;45.3;;;30.1;;
38220;SDS011;24023;51.280;7.148;2023-02-11T15:40:08;45.3;;;30.1;;
38220;SDS011;24023;51.280;7.148;2023-02-11T15:45:20;45.3;;;30.1;;
38220;SDS011;24023;51.280;7.148;2023-02-11T15:50:17;44.5;;;29.5;;
38220;SDS011;24023;51.280;7.148;2023-02-11T15:55:11;44.5;;;29.5;;
38220;SDS011;24023;51.280;7.148;2023-02-11T16:00:14;45.9;;;30.1;;
38220;SDS011;24023;51.280;7.148;2023-02-11T16:05:08;48.1;;;32.3;;
38220;SDS011;24023;51.280;7.148;2023-02-11T16:10:16;48.1;;;32.3;;
38220;SDS011;24023;51.280;7.148;2023-02-11T16:15:26;38.9;;;28.9;;
38220;SDS011;24023;51.280;7.148;2023-02-11T16:20:15;38.9;;;28.9;;
38220;SDS011;24023;51.280;7.148;2023-02-11T16:25:15;41.0;;;29.0;;
38220;SDS011;24023;51.280;7.148;2023-02-11T16:30:17;41.0;;;29.0;;
38220;SDS011;24023;51.280;7.148;2023-02-11T16:35:07;49.9;;;36.8;;
38220;SDS011;24023;51.280;7.148;2023-02-11T16:40:08;49.9;;;36.8;;
38220;SDS011;24023;51.280;7.148;2023-02-11T16:45:09;53.1;;;38.3;;
38220;SDS011;24023;51.280;7.148;2023-02-11T16:50:09;53.1;;;38.3;;
38220;SDS011;24023;51.280;7.148;2023-02-11T16:55:08;44.5;;;31.6;;
38220;SDS011;24023;51.280;7.148;2023-02-11T17:00:11;44.5;;;31.6;;
38220;SDS011;24023;51.280;7.148;2023-02-11T17:05:07;55.3;;;39.4;;
38220;SDS011;24023;51.280;7.148;2023-02-11T17:10:12;55.3;;;39.4;;
38220;SDS011;24023;51.280;7.148;2023-02-11T17:15:07;48.0;;;32.9;;
38220;SDS011;24023;51.280;7.148;2023-02-11T17:20:10;48.0;;;32.9;;
38220;SDS011;24023;51.280;7.148;2023-02-11T17:25:06;49.7;;;34.3;;
38220;SDS011;24023;51.280;7.148;2023-02-11T17:30:09;49.7;;;34.3;;
38220;SDS011;24023;51.280;7.148;2023-02-11T17:35:06;48.9;;;34.1;;
38220;SDS011;24023;51.280;7.148;2023-02-11T17:40:08;48.9;;;34.1;;
38220;SDS011;24023;51.280;7.148;2023-02-11T17:45:12;50.5;;;35.8;;
38220;SDS011;24023;51.280;7.148;2023-02-11T17:50:07;50.5;;;35.8;;
38220;SDS011;24023;51.280;7.148;2023-02-11T17:55:06;52.8;;;34.7;;
38220;SDS011;24023;51.280;7.148;2023-02-11T18:00:11;52.8;;;34.7;;
38220;SDS011;24023;51.280;7.148;2023-02-11T18:05:06;49.9;;;36.8;;
38220;SDS011;24023;51.280;7.148;2023-02-11T18:10:08;49.9;;;36.8;;
38220;SDS011;24023;51.280;7.148;2023-02-11T18:15:07;51.2;;;36.8;;
38220;SDS011;24023;51.280;7.148;2023-02-11T18:20:08;51.2;;;36.8;;
38220;SDS011;24023;51.280;7.148;2023-02-11T18:25:06;47.7;;;36.0;;
38220;SDS011;24023;51.280;7.148;2023-02-11T18:30:13;47.7;;;36.0;;
38220;SDS011;24023;51.280;7.148;2023-02-11T18:35:08;55.7;;;40.4;;
38220;SDS011;24023;51.280;7.148;2023-02-11T18:40:09;55.7;;;40.4;;
38220;SDS011;24023;51.280;7.148;2023-02-11T18:45:10;64.7;;;46.2;;
38220;SDS011;24023;51.280;7.148;2023-02-11T18:50:08;64.7;;;46.2;;
38220;SDS011;24023;51.280;7.148;2023-02-11T18:55:07;63.6;;;45.5;;
38220;SDS011;24023;51.280;7.148;2023-02-11T19:00:11;63.6;;;45.5;;
38220;SDS011;24023;51.280;7.148;2023-02-11T19:05:07;58.0;;;37.6;;
38220;SDS011;24023;51.280;7.148;2023-02-11T19:10:08;58.0;;;37.6;;
38220;SDS011;24023;51.280;7.148;2023-02-11T19:15:08;52.8;;;36.9;;
38220;SDS011;24023;51.280;7.148;2023-02-11T19:20:08;52.8;;;36.9;;
38220;SDS011;24023;51.280;7.148;2023-02-11T19:25:06;53.7;;;37.5;;
38220;SDS011;24023;51.280;7.148;2023-02-11T19:30:09;53.7;;;37.5;;
38220;SDS011;24023;51.280;7.148;2023-02-11T19:35:06;53.7;;;37.5;;
38220;SDS011;24023;51.280;7.148;2023-02-11T19:40:08;53.6;;;36.9;;
38220;SDS011;24023;51.280;7.148;2023-02-11T19:45:10;51.3;;;36.4;;
38220;SDS011;24023;51.280;7.148;2023-02-11T19:50:08;51.3;;;36.4;;
38220;SDS011;24023;51.280;7.148;2023-02-11T19:55:06;53.6;;;38.0;;
38220;SDS011;24023;51.280;7.148;2023-02-11T20:00:12;53.6;;;38.0;;
38220;SDS011;24023;51.280;7.148;2023-02-11T20:05:06;55.2;;;37.6;;
38220;SDS011;24023;51.280;7.148;2023-02-11T20:10:08;55.2;;;37.6;;
38220;SDS011;24023;51.280;7.148;2023-02-11T20:15:08;55.2;;;37.5;;
38220;SDS011;24023;51.280;7.148;2023-02-11T20:20:08;55.2;;;37.5;;
38220;SDS011;24023;51.280;7.148;2023-02-11T20:25:06;51.7;;;36.7;;
38220;SDS011;24023;51.280;7.148;2023-02-11T20:30:09;51.7;;;36.7;;
38220;SDS011;24023;51.280;7.148;2023-02-11T20:35:06;49.9;;;35.9;;
38220;SDS011;24023;51.280;7.148;2023-02-11T20:40:08;49.9;;;35.9;;
38220;SDS011;24023;51.280;7.148;2023-02-11T20:45:09;53.2;;;37.7;;
38220;SDS011;24023;51.280;7.148;2023-02-11T20:50:08;53.2;;;37.7;;
38220;SDS011;24023;51.280;7.148;2023-02-11T20:55:06;51.5;;;36.1;;
38220;SDS011;24023;51.280;7.148;2023-02-11T21:00:12;51.5;;;36.1;;
38220;SDS011;24023;51.280;7.148;2023-02-11T21:05:06;48.3;;;35.0;;
38220;SDS011;24023;51.280;7.148;2023-02-11T21:10:07;48.3;;;35.0;;
38220;SDS011;24023;51.280;7.148;2023-02-11T21:15:08;48.4;;;34.3;;
38220;SDS011;24023;51.280;7.148;2023-02-11T21:20:08;48.4;;;34.3;;
38220;SDS011;24023;51.280;7.148;2023-02-11T21:25:06;46.0;;;34.8;;
38220;SDS011;24023;51.280;7.148;2023-02-11T21:30:13;46.0;;;34.8;;
38220;SDS011;24023;51.280;7.148;2023-02-11T21:35:06;43.1;;;32.9;;
38220;SDS011;24023;51.280;7.148;2023-02-11T21:40:09;43.1;;;32.9;;
38220;SDS011;24023;51.280;7.148;2023-02-11T21:45:10;48.4;;;37.7;;
38220;SDS011;24023;51.280;7.148;2023-02-11T21:50:08;48.4;;;37.7;;
38220;SDS011;24023;51.280;7.148;2023-02-11T21:55:06;45.6;;;36.1;;
38220;SDS011;24023;51.280;7.148;2023-02-11T22:00:11;45.6;;;36.1;;
38220;SDS011;24023;51.280;7.148;2023-02-11T22:05:06;47.7;;;36.4;;
38220;SDS011;24023;51.280;7.148;2023-02-11T22:10:08;47.7;;;36.4;;
38220;SDS011;24023;51.280;7.148;2023-02-11T22:15:07;46.9;;;35.3;;
38220;SDS011;24023;51.280;7.148;2023-02-11T22:20:09;46.9;;;35.3;;
38220;SDS011;24023;51.280;7.148;2023-02-11T22:25:06;41.2;;;32.3;;
38220;SDS011;24023;51.280;7.148;2023-02-11T22:30:09;41.2;;;32.3;;
38220;SDS011;24023;51.280;7.148;2023-02-11T22:35:06;48.3;;;35.3;;
38220;SDS011;24023;51.280;7.148;2023-02-11T22:40:08;48.3;;;35.3;;
38220;SDS011;24023;51.280;7.148;2023-02-11T22:45:08;41.7;;;33.1;;
38220;SDS011;24023;51.280;7.148;2023-02-11T22:50:08;41.7;;;33.1;;
38220;SDS011;24023;51.280;7.148;2023-02-11T22:55:06;51.5;;;38.8;;
38220;SDS011;24023;51.280;7.148;2023-02-11T23:00:15;51.5;;;38.8;;
38220;SDS011;24023;51.280;7.148;2023-02-11T23:05:07;39.9;;;31.9;;
38220;SDS011;24023;51.280;7.148;2023-02-11T23:10:08;39.9;;;31.9;;
38220;SDS011;24023;51.280;7.148;2023-02-11T23:15:08;44.8;;;33.9;;
38220;SDS011;24023;51.280;7.148;2023-02-11T23:20:08;44.8;;;33.9;;
38220;SDS011;24023;51.280;7.148;2023-02-11T23:25:06;46.8;;;35.8;;
38220;SDS011;24023;51.280;7.148;2023-02-11T23:30:10;46.8;;;35.8;;
38220;SDS011;24023;51.280;7.148;2023-02-11T23:35:06;38.8;;;31.9;;
38220;SDS011;24023;51.280;7.148;2023-02-11T23:40:08;38.8;;;31.9;;
38220;SDS011;24023;51.280;7.148;2023-02-11T23:45:10;40.9;;;31.9;;
38220;SDS011;24023;51.280;7.148;2023-02-11T23:50:08;40.9;;;31.9;;
38220;SDS011;24023;51.280;7.148;2023-02-11T23:55:06;41.2;;;30.4;;
